Terminal Aerodrome Forecast
Issued by NWS Pittsburgh, PA

Current Version | Previous Version | Text Only | Print | Product List | Glossary Off
Versions: 1 2 3 4 5 6 7 8 9 10 11 12 13 14 15 16 17 18 19 20 21 22 23 24 25 26 27 28 29

860
FTUS41 KPBZ 051156
TAFPIT
TAF
KPIT 051156Z 0512/0618 27010G18KT P6SM SCT017 BKN023
     FM051800 27006KT P6SM BKN035
     FM061500 11009KT 6SM -RA OVC060=

USA.gov is the U.S. government's official web portal to all federal, state and local government web resources and services.